地図

経路データ

SID SEASON NUMBER BASIN SUBBASIN NAME ISO_TIME NATURE LAT LON WMO_WIND WMO_PRES WMO_AGENCY TRACK_TYPE DIST2LAND LANDFALL IFLAG USA_AGENCY USA_ATCF_ID USA_LAT USA_LON USA_RECORD USA_STATUS USA_WIND USA_PRES USA_SSHS USA_R34_NE USA_R34_SE USA_R34_SW USA_R34_NW USA_R50_NE USA_R50_SE USA_R50_SW USA_R50_NW USA_R64_NE USA_R64_SE USA_R64_SW USA_R64_NW USA_POCI USA_ROCI USA_RMW USA_EYE TOKYO_LAT TOKYO_LON TOKYO_GRADE TOKYO_WIND TOKYO_PRES TOKYO_R50_DIR TOKYO_R50_LONG TOKYO_R50_SHORT TOKYO_R30_DIR TOKYO_R30_LONG TOKYO_R30_SHORT TOKYO_LAND CMA_LAT CMA_LON CMA_CAT CMA_WIND CMA_PRES HKO_LAT HKO_LON HKO_CAT HKO_WIND HKO_PRES NEWDELHI_LAT NEWDELHI_LON NEWDELHI_GRADE NEWDELHI_WIND NEWDELHI_PRES NEWDELHI_CI NEWDELHI_DP NEWDELHI_POCI REUNION_LAT REUNION_LON REUNION_TYPE REUNION_WIND REUNION_PRES REUNION_TNUM REUNION_CI REUNION_RMW REUNION_R34_NE REUNION_R34_SE REUNION_R34_SW REUNION_R34_NW REUNION_R50_NE REUNION_R50_SE REUNION_R50_SW REUNION_R50_NW REUNION_R64_NE REUNION_R64_SE REUNION_R64_SW REUNION_R64_NW BOM_LAT BOM_LON BOM_TYPE BOM_WIND BOM_PRES BOM_TNUM BOM_CI BOM_RMW BOM_R34_NE BOM_R34_SE BOM_R34_SW BOM_R34_NW BOM_R50_NE BOM_R50_SE BOM_R50_SW BOM_R50_NW BOM_R64_NE BOM_R64_SE BOM_R64_SW BOM_R64_NW BOM_ROCI BOM_POCI BOM_EYE BOM_POS_METHOD BOM_PRES_METHOD NADI_LAT NADI_LON NADI_CAT NADI_WIND NADI_PRES WELLINGTON_LAT WELLINGTON_LON WELLINGTON_WIND WELLINGTON_PRES DS824_LAT DS824_LON DS824_STAGE DS824_WIND DS824_PRES TD9636_LAT TD9636_LON TD9636_STAGE TD9636_WIND TD9636_PRES TD9635_LAT TD9635_LON TD9635_WIND TD9635_PRES TD9635_ROCI NEUMANN_LAT NEUMANN_LON NEUMANN_CLASS NEUMANN_WIND NEUMANN_PRES MLC_LAT MLC_LON MLC_CLASS MLC_WIND MLC_PRES USA_GUST BOM_GUST BOM_GUST_PER REUNION_GUST REUNION_GUST_PER USA_SEAHGT USA_SEARAD_NE USA_SEARAD_SE USA_SEARAD_SW USA_SEARAD_NW STORM_SPEED STORM_DIR
1861277N15320 1861 28 NA NA NOT_NAMED 1861-10-03 12:00:00 TS 15.0000 -40.0000 main 1722 1707 _____________O -1 15.0000 -40.0000 TS 35 17 307
1861277N15320 1861 28 NA NA NOT_NAMED 1861-10-03 15:00:00 TS 15.5004 -40.6994 main 1708 1696 _____________P -1 15.5004 -40.6994 TS 35 17 307
1861277N15320 1861 28 NA NA NOT_NAMED 1861-10-03 18:00:00 TS 16.0000 -41.4000 main 1699 1689 _____________O -1 16.0000 -41.4000 TS 35 17 307
1861277N15320 1861 28 NA NA NOT_NAMED 1861-10-03 21:00:00 TS 16.4998 -42.1004 main 1696 1691 _____________P -1 16.4998 -42.1004 TS 35 17 307
1861277N15320 1861 28 NA NA NOT_NAMED 1861-10-04 00:00:00 TS 17.0000 -42.8000 main 1697 1689 _____________O -1 17.0000 -42.8000 TS 35 17 307
1861277N15320 1861 28 NA NA NOT_NAMED 1861-10-04 03:00:00 TS 17.4998 -43.5078 main 1696 1689 _____________P -1 17.4998 -43.5078 TS 35 17 307
1861277N15320 1861 28 NA NA NOT_NAMED 1861-10-04 06:00:00 TS 18.0000 -44.2000 main 1699 1697 _____________O -1 18.0000 -44.2000 TS 35 17 308
1861277N15320 1861 28 NA NA NOT_NAMED 1861-10-04 09:00:00 TS 18.5075 -44.8876 main 1708 1707 _____________P -1 18.5075 -44.8876 TS 37 16 309
1861277N15320 1861 28 NA NA NOT_NAMED 1861-10-04 12:00:00 TS 19.0000 -45.5000 main 1726 1726 _____________O -1 19.0000 -45.5000 TS 40 14 313
1861277N15320 1861 28 NA NA NOT_NAMED 1861-10-04 15:00:00 TS 19.4571 -45.9806 main 1752 1747 _____________P -1 19.4571 -45.9806 TS 40 12 317
1861277N15320 1861 28 NA NA NOT_NAMED 1861-10-04 18:00:00 TS 19.9000 -46.4000 main 1775 1775 _____________O -1 19.9000 -46.4000 TS 40 12 318
1861277N15320 1861 28 NA NA NOT_NAMED 1861-10-04 21:00:00 TS 20.3574 -46.8502 main 1804 1804 _____________P -1 20.3574 -46.8502 TS 40 12 317
1861277N15320 1861 28 NA NA NOT_NAMED 1861-10-05 00:00:00 TS 20.8000 -47.3000 main 1826 1822 _____________O -1 20.8000 -47.3000 TS 40 12 315
1861277N15320 1861 28 NA NA NOT_NAMED 1861-10-05 03:00:00 TS 21.1999 -47.7578 main 1834 1830 _____________P -1 21.1999 -47.7578 TS 40 12 314
1861277N15320 1861 28 NA NA NOT_NAMED 1861-10-05 06:00:00 TS 21.6000 -48.2000 main 1830 1817 _____________O -1 21.6000 -48.2000 TS 40 12 316
1861277N15320 1861 28 NA NA NOT_NAMED 1861-10-05 09:00:00 TS 22.0425 -48.6300 main 1817 1785 _____________P -1 22.0425 -48.6300 TS 42 12 321
1861277N15320 1861 28 NA NA NOT_NAMED 1861-10-05 12:00:00 TS 22.5000 -49.0000 main 1787 1767 _____________O -1 22.5000 -49.0000 TS 45 11 327
1861277N15320 1861 28 NA NA NOT_NAMED 1861-10-05 15:00:00 TS 22.9423 -49.2729 main 1767 1758 _____________P -1 22.9423 -49.2729 TS 45 10 333
1861277N15320 1861 28 NA NA NOT_NAMED 1861-10-05 18:00:00 TS 23.4000 -49.5000 main 1761 1751 _____________O -1 23.4000 -49.5000 TS 45 11 335
1861277N15320 1861 28 NA NA NOT_NAMED 1861-10-05 21:00:00 TS 23.9000 -49.7501 main 1748 1743 _____________P -1 23.9000 -49.7501 TS 45 11 335
1861277N15320 1861 28 NA NA NOT_NAMED 1861-10-06 00:00:00 TS 24.4000 -50.0000 main 1746 1739 _____________O -1 24.4000 -50.0000 TS 45 11 334
1861277N15320 1861 28 NA NA NOT_NAMED 1861-10-06 03:00:00 TS 24.8575 -50.2502 main 1738 1732 _____________P -1 24.8575 -50.2502 TS 45 10 333
1861277N15320 1861 28 NA NA NOT_NAMED 1861-10-06 06:00:00 TS 25.3000 -50.5000 main 1736 1727 _____________O -1 25.3000 -50.5000 TS 45 10 332
1861277N15320 1861 28 NA NA NOT_NAMED 1861-10-06 09:00:00 TS 25.7500 -50.7724 main 1732 1728 _____________P -1 25.7500 -50.7724 TS 47 10 333
1861277N15320 1861 28 NA NA NOT_NAMED 1861-10-06 12:00:00 TS 26.2000 -51.0000 main 1734 1730 _____________O -1 26.2000 -51.0000 TS 50 10 341
1861277N15320 1861 28 NA NA NOT_NAMED 1861-10-06 15:00:00 TS 26.6424 -51.1229 main 1746 1746 _____________P -1 26.6424 -51.1229 TS 50 9 349
1861277N15320 1861 28 NA NA NOT_NAMED 1861-10-06 18:00:00 TS 27.1000 -51.2000 main 1765 1765 _____________O -1 27.1000 -51.2000 TS 50 10 351
1861277N15320 1861 28 NA NA NOT_NAMED 1861-10-06 21:00:00 TS 27.5925 -51.2927 main 1785 1785 _____________P -1 27.5925 -51.2927 TS 50 10 350
1861277N15320 1861 28 NA NA NOT_NAMED 1861-10-07 00:00:00 TS 28.1000 -51.4000 main 1807 1807 _____________O -1 28.1000 -51.4000 TS 50 10 347
1861277N15320 1861 28 NA NA NOT_NAMED 1861-10-07 03:00:00 TS 28.6075 -51.5573 main 1823 1823 _____________P -1 28.6075 -51.5573 TS 50 10 345
1861277N15320 1861 28 NA NA NOT_NAMED 1861-10-07 06:00:00 TS 29.1000 -51.7000 main 1848 1848 _____________O -1 29.1000 -51.7000 TS 50 10 349
1861277N15320 1861 28 NA NA NOT_NAMED 1861-10-07 09:00:00 TS 29.5800 -51.7727 main 1875 1852 _____________P -1 29.5800 -51.7727 TS 52 9 355
1861277N15320 1861 28 NA NA NOT_NAMED 1861-10-07 12:00:00 TS 30.0000 -51.8000 main 1852 1818 _____________O -1 30.0000 -51.8000 TS 55 7 357
1861277N15320 1861 28 NA NA NOT_NAMED 1861-10-07 15:00:00 TS 30.3225 -51.8076 main 1818 1785 _____________P -1 30.3225 -51.8076 TS 55 6 1
1861277N15320 1861 28 NA NA NOT_NAMED 1861-10-07 18:00:00 TS 30.6000 -51.8000 main 1785 1751 _____________O -1 30.6000 -51.8000 TS 55 6 0
1861277N15320 1861 28 NA NA NOT_NAMED 1861-10-07 21:00:00 TS 30.9000 -51.8223 main 1751 1718 _____________P -1 30.9000 -51.8223 TS 57 6 1
1861277N15320 1861 28 NA NA NOT_NAMED 1861-10-08 00:00:00 TS 31.2000 -51.8000 main 1718 1685 _____________O -1 31.2000 -51.8000 TS 60 6 13
1861277N15320 1861 28 NA NA NOT_NAMED 1861-10-08 03:00:00 TS 31.5076 -51.6652 main 1685 1653 _____________P -1 31.5076 -51.6652 TS 60 7 23
1861277N15320 1861 28 NA NA NOT_NAMED 1861-10-08 06:00:00 TS 31.8000 -51.5000 main 1653 1621 _____________O -1 31.8000 -51.5000 TS 60 6 20
1861277N15320 1861 28 NA NA NOT_NAMED 1861-10-08 09:00:00 TS 32.0648 -51.4222 main 1621 1599 _____________P -1 32.0648 -51.4222 TS 62 5 19
1861277N15320 1861 28 NA NA NOT_NAMED 1861-10-08 12:00:00 TS 32.3000 -51.3000 main 1599 1579 _____________O -1 32.3000 -51.3000 HU 65 6 37
1861277N15320 1861 28 NA NA NOT_NAMED 1861-10-08 15:00:00 TS 32.5076 -51.0226 main 1580 1560 _____________P -1 32.5076 -51.0226 HU 65 6 52
1861277N15320 1861 28 NA NA NOT_NAMED 1861-10-08 18:00:00 TS 32.7000 -50.7000 main 1561 1541 _____________O -1 32.7000 -50.7000 HU 65 6 49
1861277N15320 1861 28 NA NA NOT_NAMED 1861-10-08 21:00:00 TS 32.8995 -50.4870 main 1541 1522 _____________P -1 32.8995 -50.4870 HU 65 6 46
1861277N15320 1861 28 NA NA NOT_NAMED 1861-10-09 00:00:00 TS 33.1000 -50.2000 main 1523 1506 _____________O -1 33.1000 -50.2000 HU 65 8 58
1861277N15320 1861 28 NA NA NOT_NAMED 1861-10-09 03:00:00 TS 33.3077 -49.6952 main 1509 1494 _____________P -1 33.3077 -49.6952 HU 67 10 66
1861277N15320 1861 28 NA NA NOT_NAMED 1861-10-09 06:00:00 TS 33.5000 -49.1000 main 1498 1491 _____________O -1 33.5000 -49.1000 HU 70 10 70
1861277N15320 1861 28 NA NA NOT_NAMED 1861-10-09 09:00:00 TS 33.6498 -48.5495 main 1499 1485 _____________P -1 33.6498 -48.5495 HU 70 10 72
1861277N15320 1861 28 NA NA NOT_NAMED 1861-10-09 12:00:00 TS 33.8000 -48.0000 main 1490 1478 _____________O -1 33.8000 -48.0000 HU 70 10 69
1861277N15320 1861 28 NA NA NOT_NAMED 1861-10-09 15:00:00 TS 33.9998 -47.4500 main 1481 1474 _____________P -1 33.9998 -47.4500 HU 70 10 66
1861277N15320 1861 28 NA NA NOT_NAMED 1861-10-09 18:00:00 TS 34.2000 -46.9000 main 1477 1473 _____________O -1 34.2000 -46.9000 HU 70 10 69
1861277N15320 1861 28 NA NA NOT_NAMED 1861-10-09 21:00:00 TS 34.3498 -46.3495 main 1485 1475 _____________P -1 34.3498 -46.3495 HU 70 10 72
1861277N15320 1861 28 NA NA NOT_NAMED 1861-10-10 00:00:00 TS 34.5000 -45.8000 main 1482 1475 _____________O -1 34.5000 -45.8000 HU 70 10 69
1861277N15320 1861 28 NA NA NOT_NAMED 1861-10-10 03:00:00 TS 34.6998 -45.2500 main 1479 1477 _____________P -1 34.6998 -45.2500 HU 70 10 66
1861277N15320 1861 28 NA NA NOT_NAMED 1861-10-10 06:00:00 TS 34.9000 -44.7000 main 1482 1480 _____________O -1 34.9000 -44.7000 HU 70 10 68
1861277N15320 1861 28 NA NA NOT_NAMED 1861-10-10 09:00:00 TS 35.0573 -44.1497 main 1487 1487 _____________P -1 35.0573 -44.1497 HU 70 9 72
1861277N15320 1861 28 NA NA NOT_NAMED 1861-10-10 12:00:00 TS 35.2000 -43.6000 main 1499 1498 _____________O -1 35.2000 -43.6000 HU 70 9 72
1861277N15320 1861 28 NA NA NOT_NAMED 1861-10-10 15:00:00 TS 35.3423 -43.0496 main 1516 1507 _____________P -1 35.3423 -43.0496 HU 70 9 71
1861277N15320 1861 28 NA NA NOT_NAMED 1861-10-10 18:00:00 TS 35.5000 -42.5000 main 1521 1521 _____________O -1 35.5000 -42.5000 HU 70 10 69
1861277N15320 1861 28 NA NA NOT_NAMED 1861-10-10 21:00:00 TS 35.6923 -41.9499 main 1532 1528 _____________P -1 35.6923 -41.9499 HU 70 10 66
1861277N15320 1861 28 NA NA NOT_NAMED 1861-10-11 00:00:00 TS 35.9000 -41.4000 main 1540 1536 _____________O -1 35.9000 -41.4000 HU 70 10 65
1861277N15320 1861 28 NA NA NOT_NAMED 1861-10-11 03:00:00 TS 36.0995 -40.8646 main 1549 1549 _____________P -1 36.0995 -40.8646 HU 70 10 66
1861277N15320 1861 28 NA NA NOT_NAMED 1861-10-11 06:00:00 TS 36.3000 -40.3000 main 1564 1561 _____________O -1 36.3000 -40.3000 HU 70 9 64
1861277N15320 1861 28 NA NA NOT_NAMED 1861-10-11 09:00:00 TS 36.5028 -39.8361 main 1576 1573 _____________P -1 36.5028 -39.8361 HU 70 11 69
1861277N15320 1861 28 NA NA NOT_NAMED 1861-10-11 12:00:00 TS 36.7000 -39.0000 main 1606 1606 _____________O -1 36.7000 -39.0000 HU 70 985 20 80
1861277N15320 1861 28 NA NA NOT_NAMED 1861-10-11 15:00:00 TS 36.8534 -37.3715 main 1688 1688 _____________P -1 36.8534 -37.3715 HU 70 29 84
1861277N15320 1861 28 NA NA NOT_NAMED 1861-10-11 18:00:00 TS 37.0000 -35.4000 main 1808 1808 _____________O -1 37.0000 -35.4000 HU 70 31 84
1861277N15320 1861 28 NA NA NOT_NAMED 1861-10-11 21:00:00 TS 37.2003 -33.5259 main 1843 1731 _____________P -1 37.2003 -33.5259 HU 70 29 82
1861277N15320 1861 28 NA NA NOT_NAMED 1861-10-12 00:00:00 TS 37.4000 -31.8000 main 1724 1641 _____________O -1 37.4000 -31.8000 HU 70 24 82
1861277N15320 1861 28 NA NA NOT_NAMED 1861-10-12 03:00:00 TS 37.5505 -30.4981 main 1641 1563 _____________P -1 37.5505 -30.4981 HU 67 21 82
1861277N15320 1861 28 NA NA NOT_NAMED 1861-10-12 06:00:00 TS 37.7000 -29.2000 main 1556 1457 _____________O -1 37.7000 -29.2000 HU 65 24 83
1861277N15320 1861 28 NA NA NOT_NAMED 1861-10-12 09:00:00 TS 37.8336 -27.5103 main 1451 1359 _____________P -1 37.8336 -27.5103 HU 62 29 84
1861277N15320 1861 28 NA NA NOT_NAMED 1861-10-12 12:00:00 TS 38.0000 -25.6000 main 1354 1232 _____________O -1 38.0000 -25.6000 TS 60 31 83
1861277N15320 1861 28 NA NA NOT_NAMED 1861-10-12 15:00:00 TS 38.2369 -23.5794 main 1224 1047 _____________P -1 38.2369 -23.5794 TS 55 33 81
1861277N15320 1861 28 NA NA NOT_NAMED 1861-10-12 18:00:00 TS 38.5000 -21.5000 main 1038 _____________O -1 38.5000 -21.5000 TS 50 33 81

IBTrACS Databaseについて

本データベースは、米国NOAAが公開する1842年以降の世界の熱帯低気圧のベストトラックデータアーカイブInternational Best Track Archive for Climate Stewardship (IBTrACS)を、ウェブで閲覧しやすい形式に変換したものです。

最終更新日:2021-12-03